createdAt,value
2018-06-22T00:00:56.016Z,17.94
2018-06-22T00:01:55.998Z,17.95
2018-06-22T00:02:55.980Z,17.92
2018-06-22T00:03:55.964Z,17.92
2018-06-22T00:04:55.947Z,17.88
2018-06-22T00:05:55.930Z,17.88
2018-06-22T00:06:55.912Z,17.89
2018-06-22T00:07:55.895Z,17.91
2018-06-22T00:08:55.880Z,17.95
2018-06-22T00:09:55.865Z,17.84
2018-06-22T00:10:55.845Z,17.85
2018-06-22T00:11:55.828Z,17.73
2018-06-22T00:12:55.812Z,17.57
2018-06-22T00:13:55.793Z,17.50
2018-06-22T00:14:55.778Z,17.50
2018-06-22T00:15:55.761Z,17.47
2018-06-22T00:16:55.745Z,17.51
2018-06-22T00:17:55.725Z,17.38
2018-06-22T00:18:55.710Z,17.30
2018-06-22T00:19:55.693Z,17.26
2018-06-22T00:20:55.676Z,17.29
2018-06-22T00:21:55.658Z,17.32
2018-06-22T00:22:55.641Z,17.30
2018-06-22T00:23:55.624Z,17.17
2018-06-22T00:24:55.606Z,17.15
2018-06-22T00:25:55.591Z,17.15
2018-06-22T00:26:55.571Z,17.08
2018-06-22T00:27:55.554Z,17.11
2018-06-22T00:28:55.537Z,17.11
2018-06-22T00:29:55.520Z,17.13
2018-06-22T00:30:55.504Z,17.11
2018-06-22T00:31:55.485Z,17.08
2018-06-22T00:32:55.568Z,17.04
2018-06-22T00:33:55.452Z,17.08
2018-06-22T00:34:55.433Z,17.03
2018-06-22T00:35:55.416Z,16.92
2018-06-22T00:36:55.398Z,17.00
2018-06-22T00:37:55.380Z,16.95
2018-06-22T00:38:55.365Z,16.95
2018-06-22T00:39:55.347Z,16.93
2018-06-22T00:40:55.329Z,16.78
2018-06-22T00:41:55.311Z,16.73
2018-06-22T00:42:55.294Z,16.75
2018-06-22T00:43:55.277Z,16.70
2018-06-22T00:44:55.259Z,16.71
2018-06-22T00:45:55.240Z,16.65
2018-06-22T00:46:55.224Z,16.67
2018-06-22T00:47:55.205Z,16.62
2018-06-22T00:48:55.189Z,16.60
2018-06-22T00:49:55.170Z,16.58
2018-06-22T00:50:55.152Z,16.67
2018-06-22T00:51:55.135Z,16.58
2018-06-22T00:52:55.118Z,16.56
2018-06-22T00:53:55.098Z,16.49
2018-06-22T00:54:55.082Z,16.48
2018-06-22T00:55:55.064Z,16.42
2018-06-22T00:56:55.046Z,16.53
2018-06-22T00:57:55.029Z,16.44
2018-06-22T00:58:55.010Z,16.52
2018-06-22T00:59:54.993Z,16.44
2018-06-22T01:00:54.975Z,16.45
2018-06-22T01:01:54.958Z,16.33
2018-06-22T01:02:54.940Z,16.18
2018-06-22T01:03:54.921Z,16.16
2018-06-22T01:04:54.903Z,16.07
2018-06-22T01:05:54.884Z,15.94
2018-06-22T01:06:54.867Z,15.94
2018-06-22T01:07:54.850Z,15.85
2018-06-22T01:08:54.833Z,15.92
2018-06-22T01:09:54.814Z,15.81
2018-06-22T01:10:54.796Z,15.86
2018-06-22T01:11:54.777Z,15.79
2018-06-22T01:12:54.761Z,15.72
2018-06-22T01:13:54.744Z,15.75
2018-06-22T01:14:56.224Z,15.78
2018-06-22T01:15:54.705Z,15.84
2018-06-22T01:16:54.688Z,15.76
2018-06-22T01:17:54.669Z,15.63
2018-06-22T01:18:54.650Z,15.61
2018-06-22T01:19:54.632Z,15.52
2018-06-22T01:20:55.365Z,15.51
2018-06-22T01:21:54.596Z,15.54
2018-06-22T01:22:54.579Z,15.59
2018-06-22T01:23:54.559Z,15.52
2018-06-22T01:24:54.543Z,15.49
2018-06-22T01:25:54.522Z,15.41
2018-06-22T01:26:54.504Z,15.38
2018-06-22T01:27:54.487Z,15.38
2018-06-22T01:28:54.469Z,15.42
2018-06-22T01:29:54.449Z,15.31
2018-06-22T01:30:54.432Z,15.28
2018-06-22T01:31:54.413Z,15.27
2018-06-22T01:32:54.394Z,15.36
2018-06-22T01:33:54.375Z,15.30
2018-06-22T01:34:54.356Z,15.26
2018-06-22T01:35:54.340Z,15.33
2018-06-22T01:36:54.320Z,15.23
2018-06-22T01:37:54.301Z,15.23
2018-06-22T01:38:54.284Z,15.11
2018-06-22T01:39:54.266Z,15.08
2018-06-22T01:40:54.246Z,15.06
2018-06-22T01:41:54.228Z,14.99
2018-06-22T01:42:54.208Z,15.01
2018-06-22T01:43:54.191Z,14.87
2018-06-22T01:44:54.173Z,14.86
2018-06-22T01:45:54.153Z,14.75
2018-06-22T01:46:54.140Z,14.74
2018-06-22T01:47:54.115Z,14.72
2018-06-22T01:48:54.098Z,14.57
2018-06-22T01:49:54.078Z,14.57
2018-06-22T01:50:54.058Z,14.50
2018-06-22T01:51:54.043Z,14.54
2018-06-22T01:52:54.023Z,14.44
2018-06-22T01:53:54.001Z,14.42
2018-06-22T01:54:53.982Z,14.42
2018-06-22T01:55:53.964Z,14.27
2018-06-22T01:56:53.945Z,14.37
2018-06-22T01:57:53.925Z,14.35
2018-06-22T01:58:53.911Z,14.32
2018-06-22T01:59:53.888Z,14.29
2018-06-22T02:00:53.870Z,14.29
2018-06-22T02:01:53.849Z,14.28
2018-06-22T02:02:53.831Z,14.20
2018-06-22T02:03:53.810Z,14.21
2018-06-22T02:04:53.792Z,14.28
2018-06-22T02:05:53.843Z,14.17
2018-06-22T02:06:53.754Z,14.16
2018-06-22T02:07:53.740Z,14.20
2018-06-22T02:08:53.715Z,14.16
2018-06-22T02:09:53.695Z,14.20
2018-06-22T02:10:53.676Z,14.12
2018-06-22T02:11:53.656Z,14.04
2018-06-22T02:12:53.638Z,14.17
2018-06-22T02:13:55.869Z,14.20
2018-06-22T02:14:53.597Z,14.10
2018-06-22T02:15:53.579Z,14.04
2018-06-22T02:16:53.560Z,13.98
2018-06-22T02:17:53.540Z,14.01
2018-06-22T02:18:53.520Z,14.02
2018-06-22T02:19:53.500Z,13.99
2018-06-22T02:20:53.481Z,13.99
2018-06-22T02:21:53.460Z,13.99
2018-06-22T02:22:53.443Z,14.04
2018-06-22T02:23:53.422Z,14.06
2018-06-22T02:24:53.403Z,14.14
2018-06-22T02:25:53.384Z,14.14
2018-06-22T02:26:53.364Z,14.16
2018-06-22T02:27:53.345Z,14.16
2018-06-22T02:28:53.327Z,14.09
2018-06-22T02:29:53.305Z,14.01
2018-06-22T02:30:53.288Z,14.09
2018-06-22T02:31:53.266Z,14.10
2018-06-22T02:32:53.247Z,13.98
2018-06-22T02:33:53.228Z,14.04
2018-06-22T02:34:53.209Z,14.01
2018-06-22T02:35:53.189Z,13.88
2018-06-22T02:36:53.172Z,13.80
2018-06-22T02:37:53.148Z,13.70
2018-06-22T02:38:53.133Z,13.73
2018-06-22T02:39:53.110Z,13.79
2018-06-22T02:40:53.090Z,13.71
2018-06-22T02:41:53.070Z,13.73
2018-06-22T02:42:53.053Z,13.67
2018-06-22T02:43:53.033Z,13.61
2018-06-22T02:44:53.012Z,13.59
2018-06-22T02:45:52.992Z,13.52
2018-06-22T02:46:52.976Z,13.62
2018-06-22T02:47:52.970Z,13.55
2018-06-22T02:48:52.935Z,13.49
2018-06-22T02:49:52.916Z,13.52
2018-06-22T02:50:52.895Z,13.49
2018-06-22T02:51:52.874Z,13.44
2018-06-22T02:52:52.865Z,13.49
2018-06-22T02:53:52.835Z,13.38
2018-06-22T02:54:52.817Z,13.44
2018-06-22T02:55:52.795Z,13.43
2018-06-22T02:56:52.776Z,13.37
2018-06-22T02:57:52.764Z,13.37
2018-06-22T02:58:52.734Z,13.36
2018-06-22T02:59:52.772Z,13.33
2018-06-22T03:00:52.697Z,13.32
2018-06-22T03:01:52.675Z,13.15
2018-06-22T03:02:52.656Z,13.18
2018-06-22T03:03:52.637Z,13.20
2018-06-22T03:04:52.617Z,13.09
2018-06-22T03:05:52.597Z,13.22
2018-06-22T03:06:52.577Z,13.18
2018-06-22T03:07:52.556Z,13.17
2018-06-22T03:08:52.538Z,13.20
2018-06-22T03:09:52.516Z,13.18
2018-06-22T03:10:52.498Z,13.12
2018-06-22T03:11:52.477Z,13.09
2018-06-22T03:12:52.459Z,13.12
2018-06-22T03:13:52.436Z,13.12
2018-06-22T03:14:52.416Z,12.99
2018-06-22T03:15:52.399Z,13.07
2018-06-22T03:16:53.878Z,13.06
2018-06-22T03:17:52.355Z,13.11
2018-06-22T03:18:52.335Z,13.00
2018-06-22T03:19:52.316Z,13.00
2018-06-22T03:20:52.297Z,12.99
2018-06-22T03:21:52.274Z,13.00
2018-06-22T03:22:52.255Z,13.04
2018-06-22T03:23:52.236Z,12.93
2018-06-22T03:24:52.216Z,12.96
2018-06-22T03:25:52.198Z,13.00
2018-06-22T03:26:52.175Z,12.93
2018-06-22T03:27:52.159Z,12.97
2018-06-22T03:28:52.136Z,13.04
2018-06-22T03:29:52.113Z,13.02
2018-06-22T03:30:52.096Z,12.89
2018-06-22T03:31:52.077Z,12.95
2018-06-22T03:32:52.054Z,12.95
2018-06-22T03:33:52.034Z,12.93
2018-06-22T03:34:52.014Z,12.95
2018-06-22T03:35:51.993Z,12.92
2018-06-22T03:36:51.972Z,12.87
2018-06-22T03:37:51.952Z,12.95
2018-06-22T03:38:51.933Z,13.00
2018-06-22T03:39:51.913Z,12.93
2018-06-22T03:40:51.893Z,12.92
2018-06-22T03:41:51.872Z,12.97
2018-06-22T03:42:51.852Z,12.92
2018-06-22T03:43:51.831Z,12.84
2018-06-22T03:44:51.811Z,12.85
2018-06-22T03:45:51.791Z,12.79
2018-06-22T03:46:51.770Z,12.79
2018-06-22T03:47:51.755Z,12.78
2018-06-22T03:48:51.730Z,12.85
2018-06-22T03:49:51.709Z,12.78
2018-06-22T03:50:51.688Z,12.67
2018-06-22T03:51:51.668Z,12.67
2018-06-22T03:52:51.650Z,12.66
2018-06-22T03:53:51.628Z,12.69
2018-06-22T03:54:51.607Z,12.69
2018-06-22T03:55:51.588Z,12.69
2018-06-22T03:56:51.588Z,12.74
2018-06-22T03:57:51.546Z,12.67
2018-06-22T03:58:51.525Z,12.71
2018-06-22T03:59:51.506Z,12.82
2018-06-22T04:00:51.485Z,12.63
2018-06-22T04:01:51.464Z,12.62
2018-06-22T04:02:51.445Z,12.70
2018-06-22T04:03:51.425Z,12.60
2018-06-22T04:04:51.404Z,12.62
2018-06-22T04:05:51.382Z,12.69
2018-06-22T04:06:51.362Z,12.63
2018-06-22T04:07:51.343Z,12.66
2018-06-22T04:08:51.323Z,12.63
2018-06-22T04:09:51.303Z,12.62
2018-06-22T04:10:51.282Z,12.57
2018-06-22T04:11:51.261Z,12.71
2018-06-22T04:12:51.242Z,12.63
2018-06-22T04:13:52.722Z,12.67
2018-06-22T04:14:51.199Z,12.66
2018-06-22T04:15:51.179Z,12.64
2018-06-22T04:16:51.198Z,12.57
2018-06-22T04:17:51.138Z,12.71
2018-06-22T04:18:51.117Z,12.66
2018-06-22T04:19:51.097Z,12.64
2018-06-22T04:20:51.076Z,12.70
2018-06-22T04:21:51.056Z,12.62
2018-06-22T04:22:51.036Z,12.64
2018-06-22T04:23:51.015Z,12.67
2018-06-22T04:24:50.994Z,12.64
2018-06-22T04:25:50.977Z,12.69
2018-06-22T04:26:50.955Z,12.52
2018-06-22T04:27:50.935Z,12.74
2018-06-22T04:28:50.913Z,12.57
2018-06-22T04:29:50.892Z,12.69
2018-06-22T04:30:50.872Z,12.69
2018-06-22T04:31:50.852Z,12.66
2018-06-22T04:32:50.833Z,12.63
2018-06-22T04:33:50.810Z,12.64
2018-06-22T04:34:50.790Z,12.62
2018-06-22T04:35:50.770Z,12.64
2018-06-22T04:36:50.751Z,12.77
2018-06-22T04:37:50.742Z,12.78
2018-06-22T04:38:50.711Z,12.79
2018-06-22T04:39:50.689Z,12.82
2018-06-22T04:40:50.670Z,12.67
2018-06-22T04:41:51.399Z,12.74
2018-06-22T04:42:50.628Z,12.82
2018-06-22T04:43:50.608Z,12.82
2018-06-22T04:44:50.588Z,12.81
2018-06-22T04:45:50.568Z,12.79
2018-06-22T04:46:50.546Z,12.82
2018-06-22T04:47:50.526Z,12.82
2018-06-22T04:48:50.508Z,12.88
2018-06-22T04:49:50.487Z,12.81
2018-06-22T04:50:50.467Z,12.77
2018-06-22T04:51:50.447Z,12.81
2018-06-22T04:52:50.425Z,12.74
2018-06-22T04:53:50.405Z,12.75
2018-06-22T04:54:50.385Z,12.70
2018-06-22T04:55:50.366Z,12.69
2018-06-22T04:56:50.345Z,12.70
2018-06-22T04:57:50.323Z,12.69
2018-06-22T04:58:50.303Z,12.60
2018-06-22T04:59:50.284Z,12.66
2018-06-22T05:00:50.263Z,12.63
2018-06-22T05:01:50.242Z,12.62
2018-06-22T05:02:50.225Z,12.74
2018-06-22T05:03:50.202Z,12.66
2018-06-22T05:04:50.181Z,12.70
2018-06-22T05:05:50.161Z,12.69
2018-06-22T05:06:50.141Z,12.69
2018-06-22T05:07:50.120Z,12.75
2018-06-22T05:08:50.103Z,12.71
2018-06-22T05:09:50.080Z,12.77
2018-06-22T05:10:50.120Z,12.66
2018-06-22T05:11:50.040Z,12.66
2018-06-22T05:12:50.020Z,12.74
2018-06-22T05:13:49.997Z,12.67
2018-06-22T05:14:49.977Z,12.62
2018-06-22T05:15:50.116Z,12.70
2018-06-22T05:16:49.937Z,12.78
2018-06-22T05:17:49.916Z,12.87
2018-06-22T05:18:49.896Z,12.92
2018-06-22T05:19:49.875Z,12.95
2018-06-22T05:20:49.856Z,12.95
2018-06-22T05:21:49.835Z,12.82
2018-06-22T05:22:49.814Z,12.82
2018-06-22T05:23:49.798Z,12.89
2018-06-22T05:24:49.822Z,12.87
2018-06-22T05:25:49.752Z,12.81
2018-06-22T05:26:49.732Z,12.95
2018-06-22T05:27:49.719Z,12.96
2018-06-22T05:28:49.693Z,13.02
2018-06-22T05:29:49.671Z,13.02
2018-06-22T05:30:49.651Z,13.11
2018-06-22T05:31:49.631Z,13.14
2018-06-22T05:32:49.611Z,13.06
2018-06-22T05:33:49.589Z,13.00
2018-06-22T05:34:49.570Z,12.96
2018-06-22T05:35:52.570Z,12.92
2018-06-22T05:36:49.530Z,13.00
2018-06-22T05:37:49.509Z,12.88
2018-06-22T05:38:49.489Z,12.99
2018-06-22T05:39:49.473Z,12.96
2018-06-22T05:40:49.449Z,13.06
2018-06-22T05:41:49.428Z,13.02
2018-06-22T05:42:49.407Z,13.04
2018-06-22T05:43:49.387Z,13.03
2018-06-22T05:44:49.366Z,13.14
2018-06-22T05:45:49.344Z,13.02
2018-06-22T05:46:49.324Z,13.00
2018-06-22T05:47:49.304Z,13.04
2018-06-22T05:48:49.287Z,13.02
2018-06-22T05:49:49.263Z,12.99
2018-06-22T05:50:49.344Z,13.04
2018-06-22T05:51:49.223Z,13.06
2018-06-22T05:52:49.202Z,13.11
2018-06-22T05:53:49.182Z,13.14
2018-06-22T05:54:49.163Z,13.22
2018-06-22T05:55:49.141Z,13.12
2018-06-22T05:56:49.173Z,13.30
2018-06-22T05:57:49.100Z,13.32
2018-06-22T05:58:49.080Z,13.32
2018-06-22T05:59:49.060Z,13.27
2018-06-22T06:00:49.066Z,13.25
2018-06-22T06:01:49.020Z,13.22
2018-06-22T06:02:48.999Z,13.15
2018-06-22T06:03:48.978Z,13.11
2018-06-22T06:04:48.959Z,13.11
2018-06-22T06:05:48.939Z,13.11
2018-06-22T06:06:48.920Z,13.18
2018-06-22T06:07:49.648Z,13.15
2018-06-22T06:08:48.876Z,13.20
2018-06-22T06:09:48.856Z,13.14
2018-06-22T06:10:48.835Z,13.12
2018-06-22T06:11:48.815Z,13.22
2018-06-22T06:12:48.795Z,13.41
2018-06-22T06:13:48.775Z,13.44
2018-06-22T06:14:48.766Z,13.63
2018-06-22T06:15:48.740Z,13.58
2018-06-22T06:16:48.715Z,13.55
2018-06-22T06:17:48.694Z,13.63
2018-06-22T06:18:48.673Z,13.62
2018-06-22T06:19:48.653Z,13.49
2018-06-22T06:20:48.633Z,13.55
2018-06-22T06:21:48.612Z,13.43
2018-06-22T06:22:48.593Z,13.43
2018-06-22T06:23:48.571Z,13.55
2018-06-22T06:24:48.551Z,13.58
2018-06-22T06:25:48.530Z,13.55
2018-06-22T06:26:48.511Z,13.63
2018-06-22T06:27:48.491Z,13.58
2018-06-22T06:28:48.471Z,13.62
2018-06-22T06:29:48.449Z,13.55
2018-06-22T06:30:48.431Z,13.59
2018-06-22T06:31:48.410Z,13.59
2018-06-22T06:32:48.391Z,13.67
2018-06-22T06:33:48.368Z,13.62
2018-06-22T06:34:48.352Z,13.70
2018-06-22T06:35:48.329Z,13.74
2018-06-22T06:36:48.309Z,13.59
2018-06-22T06:37:48.289Z,13.71
2018-06-22T06:38:48.271Z,13.71
2018-06-22T06:39:48.248Z,13.80
2018-06-22T06:40:48.228Z,13.74
2018-06-22T06:41:48.217Z,13.87
2018-06-22T06:42:48.188Z,13.70
2018-06-22T06:43:48.168Z,13.71
2018-06-22T06:44:48.147Z,13.73
2018-06-22T06:45:48.127Z,13.76
2018-06-22T06:46:48.108Z,13.74
2018-06-22T06:47:48.088Z,13.71
2018-06-22T06:48:48.067Z,13.71
2018-06-22T06:49:48.046Z,13.77
2018-06-22T06:50:48.027Z,13.65
2018-06-22T06:51:48.007Z,13.73
2018-06-22T06:52:47.987Z,13.77
2018-06-22T06:53:47.965Z,14.01
2018-06-22T06:54:47.949Z,14.12
2018-06-22T06:55:47.927Z,14.12
2018-06-22T06:56:47.957Z,14.17
2018-06-22T06:57:47.886Z,14.07
2018-06-22T06:58:47.868Z,14.04
2018-06-22T06:59:47.894Z,13.98
2018-06-22T07:00:47.827Z,14.12
2018-06-22T07:01:47.806Z,14.10
2018-06-22T07:02:47.787Z,14.20
2018-06-22T07:03:47.765Z,14.24
2018-06-22T07:04:47.745Z,14.10
2018-06-22T07:05:47.726Z,14.13
2018-06-22T07:06:47.705Z,14.16
2018-06-22T07:07:47.685Z,14.25
2018-06-22T07:08:47.676Z,14.24
2018-06-22T07:09:47.644Z,14.31
2018-06-22T07:10:47.625Z,14.28
2018-06-22T07:11:47.605Z,14.32
2018-06-22T07:12:47.585Z,14.32
2018-06-22T07:13:47.565Z,14.34
2018-06-22T07:14:47.546Z,14.38
2018-06-22T07:15:47.527Z,14.42
2018-06-22T07:16:47.507Z,14.56
2018-06-22T07:17:47.486Z,14.61
2018-06-22T07:18:47.471Z,14.56
2018-06-22T07:19:50.449Z,14.57
2018-06-22T07:20:47.427Z,14.54
2018-06-22T07:21:47.406Z,14.64
2018-06-22T07:22:47.389Z,14.62
2018-06-22T07:23:47.369Z,14.80
2018-06-22T07:24:47.350Z,14.83
2018-06-22T07:25:48.078Z,14.81
2018-06-22T07:26:47.308Z,14.69
2018-06-22T07:27:47.287Z,14.65
2018-06-22T07:28:47.270Z,14.65
2018-06-22T07:29:47.251Z,14.60
2018-06-22T07:30:47.230Z,14.68
2018-06-22T07:31:47.209Z,14.71
2018-06-22T07:32:47.191Z,14.69
2018-06-22T07:33:47.173Z,14.86
2018-06-22T07:34:47.150Z,14.94
2018-06-22T07:35:47.132Z,14.94
2018-06-22T07:36:47.111Z,15.01
2018-06-22T07:37:47.093Z,14.94
2018-06-22T07:38:47.072Z,14.72
2018-06-22T07:39:47.054Z,14.87
2018-06-22T07:40:47.033Z,14.87
2018-06-22T07:41:47.013Z,14.90
2018-06-22T07:42:46.993Z,14.91
2018-06-22T07:43:47.007Z,14.86
2018-06-22T07:44:46.961Z,14.83
2018-06-22T07:45:46.937Z,14.87
2018-06-22T07:46:46.917Z,14.91
2018-06-22T07:47:46.897Z,14.99
2018-06-22T07:48:46.879Z,15.06
2018-06-22T07:49:46.884Z,15.12
2018-06-22T07:50:46.840Z,15.11
2018-06-22T07:51:46.822Z,15.06
2018-06-22T07:52:46.800Z,14.99
2018-06-22T07:53:46.781Z,14.99
2018-06-22T07:54:46.761Z,15.12
2018-06-22T07:55:46.743Z,15.26
2018-06-22T07:56:48.225Z,15.21
2018-06-22T07:57:46.703Z,15.27
2018-06-22T07:58:46.684Z,15.27
2018-06-22T07:59:46.667Z,15.28
2018-06-22T08:00:46.646Z,15.36
2018-06-22T08:01:46.625Z,15.38
2018-06-22T08:02:48.108Z,15.01
2018-06-22T08:03:46.588Z,15.03
2018-06-22T08:04:46.568Z,15.06
2018-06-22T08:05:46.549Z,15.01
2018-06-22T08:06:46.530Z,15.23
2018-06-22T08:07:46.511Z,15.03
2018-06-22T08:08:47.242Z,15.09
2018-06-22T08:09:46.471Z,15.13
2018-06-22T08:10:46.452Z,15.15
2018-06-22T08:11:46.433Z,15.26
2018-06-22T08:12:46.414Z,15.30
2018-06-22T08:13:46.395Z,15.35
2018-06-22T08:14:46.381Z,15.39
2018-06-22T08:15:46.357Z,15.43
2018-06-22T08:16:46.391Z,15.48
2018-06-22T08:17:46.317Z,15.42
2018-06-22T08:18:46.298Z,15.48
2018-06-22T08:19:46.279Z,15.64
2018-06-22T08:20:46.260Z,15.79
2018-06-22T08:21:46.240Z,15.78
2018-06-22T08:22:46.221Z,15.78
2018-06-22T08:23:46.203Z,15.94
2018-06-22T08:24:46.184Z,16.06
2018-06-22T08:25:46.167Z,16.11
2018-06-22T08:26:46.145Z,15.92
2018-06-22T08:27:46.128Z,15.67
2018-06-22T08:28:46.107Z,15.45
2018-06-22T08:29:46.089Z,15.66
2018-06-22T08:30:46.069Z,15.57
2018-06-22T08:31:46.054Z,15.49
2018-06-22T08:32:46.033Z,15.54
2018-06-22T08:33:46.013Z,15.76
2018-06-22T08:34:46.038Z,15.72
2018-06-22T08:35:45.974Z,15.84
2018-06-22T08:36:45.955Z,15.97
2018-06-22T08:37:45.936Z,16.15
2018-06-22T08:38:45.917Z,16.15
2018-06-22T08:39:45.899Z,15.93
2018-06-22T08:40:45.879Z,16.03
2018-06-22T08:41:45.981Z,16.12
2018-06-22T08:42:45.843Z,16.26
2018-06-22T08:43:45.824Z,16.23
2018-06-22T08:44:45.806Z,16.27
2018-06-22T08:45:45.785Z,16.35
2018-06-22T08:46:45.766Z,16.06
2018-06-22T08:47:45.752Z,15.68
2018-06-22T08:48:45.733Z,15.72
2018-06-22T08:49:45.711Z,15.79
2018-06-22T08:50:45.691Z,15.99
2018-06-22T08:51:45.674Z,16.01
2018-06-22T08:52:45.655Z,16.16
2018-06-22T08:53:45.638Z,16.33
2018-06-22T08:54:45.617Z,16.18
2018-06-22T08:55:45.625Z,16.31
2018-06-22T08:56:45.579Z,16.58
2018-06-22T08:57:45.560Z,16.52
2018-06-22T08:58:45.543Z,16.62
2018-06-22T08:59:45.523Z,16.59
2018-06-22T09:00:45.504Z,16.41
2018-06-22T09:01:45.485Z,16.55
2018-06-22T09:02:45.468Z,16.74
2018-06-22T09:03:45.449Z,16.83
2018-06-22T09:04:45.433Z,16.77
2018-06-22T09:05:45.411Z,16.58
2018-06-22T09:06:45.393Z,16.65
2018-06-22T09:07:45.379Z,16.67
2018-06-22T09:08:45.356Z,16.81
2018-06-22T09:09:45.337Z,16.92
2018-06-22T09:10:45.319Z,16.98
2018-06-22T09:11:45.301Z,17.04
2018-06-22T09:12:49.787Z,17.15
2018-06-22T09:13:45.264Z,17.30
2018-06-22T09:14:45.246Z,17.35
2018-06-22T09:15:45.229Z,17.48
2018-06-22T09:16:45.210Z,17.33
2018-06-22T09:17:45.192Z,17.40
2018-06-22T09:18:45.923Z,17.53
2018-06-22T09:19:45.165Z,17.36
2018-06-22T09:20:45.137Z,17.53
2018-06-22T09:21:45.120Z,17.41
2018-06-22T09:22:45.101Z,17.63
2018-06-22T09:23:45.082Z,17.63
2018-06-22T09:24:45.066Z,17.76
2018-06-22T09:25:45.046Z,17.82
2018-06-22T09:26:45.029Z,17.74
2018-06-22T09:27:45.012Z,17.79
2018-06-22T09:28:44.992Z,17.73
2018-06-22T09:29:44.976Z,17.85
2018-06-22T09:30:44.955Z,17.63
2018-06-22T09:31:44.940Z,17.17
2018-06-22T09:32:44.921Z,16.95
2018-06-22T09:33:44.902Z,16.99
2018-06-22T09:34:44.885Z,17.07
2018-06-22T09:35:44.873Z,17.10
2018-06-22T09:36:44.879Z,17.23
2018-06-22T09:37:44.831Z,16.88
2018-06-22T09:38:44.812Z,16.89
2018-06-22T09:39:44.795Z,17.08
2018-06-22T09:40:44.777Z,16.95
2018-06-22T09:41:44.760Z,17.08
2018-06-22T09:42:44.814Z,17.15
2018-06-22T09:43:44.724Z,17.22
2018-06-22T09:44:44.705Z,17.35
2018-06-22T09:45:44.687Z,17.04
2018-06-22T09:46:44.669Z,16.89
2018-06-22T09:47:44.652Z,16.92
2018-06-22T09:48:44.635Z,17.00
2018-06-22T09:49:44.615Z,17.07
2018-06-22T09:50:44.598Z,17.17
2018-06-22T09:51:44.581Z,17.30
2018-06-22T09:52:44.564Z,17.10
2018-06-22T09:53:44.543Z,17.00
2018-06-22T09:54:44.525Z,17.07
2018-06-22T09:55:44.509Z,17.17
2018-06-22T09:56:44.490Z,17.38
2018-06-22T09:57:44.471Z,17.66
2018-06-22T09:58:44.456Z,17.85
2018-06-22T09:59:44.437Z,18.06
2018-06-22T10:00:44.420Z,18.21
2018-06-22T10:01:44.402Z,18.27
2018-06-22T10:02:44.383Z,18.28
2018-06-22T10:03:44.367Z,18.17
2018-06-22T10:04:44.385Z,17.97
2018-06-22T10:05:44.331Z,17.66
2018-06-22T10:06:44.313Z,17.84
2018-06-22T10:07:44.295Z,18.21
2018-06-22T10:08:44.277Z,17.91
2018-06-22T10:09:44.263Z,18.06
2018-06-22T10:10:47.244Z,18.29
2018-06-22T10:11:44.224Z,18.54
2018-06-22T10:12:44.207Z,18.72
2018-06-22T10:13:44.189Z,18.74
2018-06-22T10:14:44.173Z,18.84
2018-06-22T10:15:44.154Z,18.80
2018-06-22T10:16:44.139Z,18.87
2018-06-22T10:17:44.119Z,18.83
2018-06-22T10:18:44.103Z,18.55
2018-06-22T10:19:44.117Z,17.73
2018-06-22T10:20:44.069Z,17.51
2018-06-22T10:21:44.051Z,17.32
2018-06-22T10:22:44.035Z,17.43
2018-06-22T10:23:44.016Z,17.69
2018-06-22T10:24:44.000Z,18.00
2018-06-22T10:25:43.982Z,18.25
2018-06-22T10:26:43.964Z,18.44
2018-06-22T10:27:43.948Z,17.95
2018-06-22T10:28:43.930Z,18.09
2018-06-22T10:29:43.913Z,18.09
2018-06-22T10:30:43.897Z,18.07
2018-06-22T10:31:43.882Z,18.25
2018-06-22T10:32:43.862Z,18.34
2018-06-22T10:33:43.844Z,18.24
2018-06-22T10:34:43.828Z,18.12
2018-06-22T10:35:43.810Z,18.22
2018-06-22T10:36:43.792Z,18.29
2018-06-22T10:37:43.781Z,18.21
2018-06-22T10:38:43.758Z,18.13
2018-06-22T10:39:43.741Z,18.25
2018-06-22T10:40:43.725Z,18.55
2018-06-22T10:41:43.706Z,18.87
2018-06-22T10:42:43.693Z,19.05
2018-06-22T10:43:43.673Z,18.57
2018-06-22T10:44:43.655Z,18.67
2018-06-22T10:45:43.669Z,18.95
2018-06-22T10:46:43.620Z,18.73
2018-06-22T10:47:43.606Z,18.47
2018-06-22T10:48:43.587Z,18.65
2018-06-22T10:49:43.569Z,18.74
2018-06-22T10:50:43.551Z,18.76
2018-06-22T10:51:43.536Z,18.49
2018-06-22T10:52:43.520Z,18.87
2018-06-22T10:53:43.501Z,19.02
2018-06-22T10:54:43.484Z,19.05
2018-06-22T10:55:43.467Z,19.25
2018-06-22T10:56:43.449Z,19.17
2018-06-22T10:57:43.431Z,18.76
2018-06-22T10:58:43.415Z,18.61
2018-06-22T10:59:43.512Z,18.62
2018-06-22T11:00:43.383Z,18.76
2018-06-22T11:01:43.365Z,19.06
2018-06-22T11:02:43.348Z,18.92
2018-06-22T11:03:43.330Z,18.82
2018-06-22T11:04:43.313Z,18.83
2018-06-22T11:05:43.346Z,18.83
2018-06-22T11:06:43.279Z,18.73
2018-06-22T11:07:43.262Z,18.52
2018-06-22T11:08:43.247Z,18.62
2018-06-22T11:09:43.228Z,18.54
2018-06-22T11:10:43.211Z,18.64
2018-06-22T11:11:43.196Z,18.98
2018-06-22T11:12:43.178Z,18.68
2018-06-22T11:13:43.160Z,18.86
2018-06-22T11:14:43.144Z,19.13
2018-06-22T11:15:43.127Z,19.36
2018-06-22T11:16:43.117Z,19.39
2018-06-22T11:17:43.093Z,19.38
2018-06-22T11:18:43.077Z,19.54
2018-06-22T11:19:43.060Z,19.42
2018-06-22T11:20:43.045Z,19.35
2018-06-22T11:21:43.027Z,19.36
2018-06-22T11:22:43.009Z,19.42
2018-06-22T11:23:42.993Z,19.46
2018-06-22T11:24:43.002Z,19.70
2018-06-22T11:25:42.958Z,19.38
2018-06-22T11:26:42.942Z,18.87
2018-06-22T11:27:42.926Z,18.91
2018-06-22T11:28:42.910Z,18.99
2018-06-22T11:29:42.892Z,19.21
2018-06-22T11:30:42.893Z,19.42
2018-06-22T11:31:42.862Z,19.54
2018-06-22T11:32:42.847Z,19.55
2018-06-22T11:33:42.826Z,19.43
2018-06-22T11:34:42.809Z,19.39
2018-06-22T11:35:42.825Z,19.60
2018-06-22T11:36:42.777Z,19.43
2018-06-22T11:37:42.758Z,19.58
2018-06-22T11:38:42.741Z,19.65
2018-06-22T11:39:42.727Z,19.57
2018-06-22T11:40:43.459Z,19.60
2018-06-22T11:41:42.692Z,19.51
2018-06-22T11:42:42.676Z,19.42
2018-06-22T11:43:42.662Z,19.24
2018-06-22T11:44:42.643Z,19.33
2018-06-22T11:45:42.627Z,19.29
2018-06-22T11:46:42.617Z,19.15
2018-06-22T11:47:42.594Z,19.02
2018-06-22T11:48:42.582Z,19.02
2018-06-22T11:49:42.562Z,18.91
2018-06-22T11:50:42.544Z,19.05
2018-06-22T11:51:42.530Z,19.11
2018-06-22T11:52:42.510Z,19.39
2018-06-22T11:53:42.493Z,19.42
2018-06-22T11:54:42.477Z,19.60
2018-06-22T11:55:42.460Z,19.57
2018-06-22T11:56:42.444Z,19.69
2018-06-22T11:57:42.427Z,19.57
2018-06-22T11:58:42.411Z,19.86
2018-06-22T11:59:42.394Z,19.97
2018-06-22T12:00:42.378Z,20.24
2018-06-22T12:01:42.368Z,20.54
2018-06-22T12:02:45.351Z,20.69
2018-06-22T12:03:42.329Z,20.87
2018-06-22T12:04:42.361Z,21.20
2018-06-22T12:05:42.296Z,21.24
2018-06-22T12:06:42.280Z,20.96
2018-06-22T12:07:42.264Z,21.17
2018-06-22T12:08:42.999Z,21.26
2018-06-22T12:09:42.231Z,21.66
2018-06-22T12:10:42.217Z,21.85
2018-06-22T12:11:42.202Z,21.88
2018-06-22T12:12:42.185Z,21.81
2018-06-22T12:13:42.169Z,21.67
2018-06-22T12:14:42.154Z,20.81
2018-06-22T12:15:42.137Z,20.64
2018-06-22T12:16:42.127Z,20.91
2018-06-22T12:17:42.107Z,20.90
2018-06-22T12:18:42.095Z,20.93
2018-06-22T12:19:42.078Z,20.34
2018-06-22T12:20:42.062Z,20.16
2018-06-22T12:21:42.045Z,19.69
2018-06-22T12:22:42.031Z,19.54
2018-06-22T12:23:42.015Z,19.55
2018-06-22T12:24:42.000Z,19.57
2018-06-22T12:25:41.983Z,19.98
2018-06-22T12:26:41.969Z,20.38
2018-06-22T12:27:41.987Z,20.28
2018-06-22T12:28:41.940Z,20.38
2018-06-22T12:29:41.923Z,20.51
2018-06-22T12:30:41.907Z,20.77
2018-06-22T12:31:41.894Z,21.11
2018-06-22T12:32:41.878Z,21.38
2018-06-22T12:33:41.862Z,21.64
2018-06-22T12:34:41.849Z,21.61
2018-06-22T12:35:41.832Z,21.95
2018-06-22T12:36:41.818Z,21.57
2018-06-22T12:37:41.802Z,21.64
2018-06-22T12:38:41.789Z,21.61
2018-06-22T12:39:41.834Z,21.11
2018-06-22T12:40:44.010Z,20.98
2018-06-22T12:41:41.743Z,20.83
2018-06-22T12:42:41.728Z,20.58
2018-06-22T12:43:41.714Z,20.25
2018-06-22T12:44:41.699Z,20.15
2018-06-22T12:45:41.683Z,19.72
2018-06-22T12:46:41.670Z,19.61
2018-06-22T12:47:41.655Z,19.53
2018-06-22T12:48:41.701Z,19.65
2018-06-22T12:49:41.622Z,19.98
2018-06-22T12:50:41.610Z,20.53
2018-06-22T12:51:41.594Z,20.83
2018-06-22T12:52:41.579Z,21.06